createdAt,value
2024-01-20T00:01:39.978Z,100305.91
2024-01-20T00:16:42.869Z,100322.97
2024-01-20T00:31:45.363Z,100332.84
2024-01-20T00:46:47.217Z,100336.50
2024-01-20T01:01:49.904Z,100334.84
2024-01-20T01:16:51.868Z,100341.19
2024-01-20T01:31:53.606Z,100350.25
2024-01-20T01:46:56.247Z,100353.75
2024-01-20T02:01:58.815Z,100353.31
2024-01-20T02:17:01.346Z,100351.63
2024-01-20T02:32:04.046Z,100377.53
2024-01-20T02:47:07.390Z,100380.38
2024-01-20T03:02:10.276Z,100384.25
2024-01-20T03:17:12.849Z,100391.44
2024-01-20T03:32:14.660Z,100414.84
2024-01-20T03:47:16.349Z,100407.00
2024-01-20T04:02:18.135Z,100420.53
2024-01-20T04:17:20.723Z,100440.28
2024-01-20T04:32:22.412Z,100455.66
2024-01-20T04:47:24.124Z,100471.53
2024-01-20T05:02:26.685Z,100483.22
2024-01-20T05:17:29.371Z,100469.84
2024-01-20T05:32:31.286Z,100467.19
2024-01-20T05:47:33.051Z,100489.41
2024-01-20T06:02:35.586Z,100508.75
2024-01-20T06:17:37.399Z,100519.28
2024-01-20T06:32:40.042Z,100540.66
2024-01-20T06:47:42.767Z,100542.50
2024-01-20T07:02:45.771Z,100550.38
2024-01-20T07:17:48.552Z,100568.72
2024-01-20T07:32:51.960Z,100594.09
2024-01-20T07:47:55.550Z,100606.25
2024-01-20T08:02:58.218Z,100622.69
2024-01-20T08:18:00.912Z,100628.38
2024-01-20T08:33:05.273Z,100641.03
2024-01-20T08:48:08.889Z,100645.69
2024-01-20T09:03:11.586Z,100673.75
2024-01-20T09:18:13.635Z,100676.38
2024-01-20T09:33:15.520Z,100681.19
2024-01-20T09:48:17.334Z,100692.22
2024-01-20T10:03:20.389Z,100705.41
2024-01-20T10:18:23.093Z,100711.91
2024-01-20T10:33:25.789Z,100700.00
2024-01-20T10:48:30.336Z,100678.28
2024-01-20T11:03:33.461Z,100682.44
2024-01-20T11:18:40.546Z,100696.94
2024-01-20T11:33:47.349Z,100702.75
2024-01-20T11:48:50.241Z,100703.44
2024-01-20T12:03:52.933Z,100711.78
2024-01-20T12:18:56.425Z,100726.50
2024-01-20T12:33:59.232Z,100736.19
2024-01-20T12:49:01.848Z,100710.44
2024-01-20T13:04:04.511Z,100712.28
2024-01-20T13:19:07.382Z,100705.25
2024-01-20T13:34:10.422Z,100710.44
2024-01-20T13:49:13.603Z,100741.88
2024-01-20T14:04:16.460Z,100751.59
2024-01-20T14:19:19.167Z,100763.78
2024-01-20T14:34:22.664Z,100766.97
2024-01-20T14:49:24.533Z,100779.34
2024-01-20T15:04:26.551Z,100783.00
2024-01-20T15:19:29.332Z,100777.84
2024-01-20T15:34:32.784Z,100795.75
2024-01-20T15:49:35.526Z,100792.88
2024-01-20T16:04:38.052Z,100789.34
2024-01-20T16:19:40.662Z,100801.94
2024-01-20T16:34:43.304Z,100797.38
2024-01-20T16:49:46.702Z,100808.09
2024-01-20T17:04:49.293Z,100816.78
2024-01-20T17:19:51.856Z,100818.47
2024-01-20T17:34:54.466Z,100833.50
2024-01-20T17:49:57.714Z,100837.84
2024-01-20T18:05:01.171Z,100847.56
2024-01-20T18:20:03.831Z,100842.38
2024-01-20T18:35:07.013Z,100837.69
2024-01-20T18:50:09.459Z,100844.88
2024-01-20T19:05:12.263Z,100860.28
2024-01-20T19:20:14.860Z,100864.81
2024-01-20T19:35:16.505Z,100855.94
2024-01-20T19:50:18.335Z,100862.31
2024-01-20T20:05:20.888Z,100854.28
2024-01-20T20:20:22.862Z,100844.09
2024-01-20T20:35:24.679Z,100842.59
2024-01-20T20:50:27.320Z,100836.88
2024-01-20T21:05:29.833Z,100828.84
2024-01-20T21:20:31.560Z,100823.19
2024-01-20T21:35:34.309Z,100828.25
2024-01-20T21:50:36.068Z,100822.88
2024-01-20T22:05:38.218Z,100823.06
2024-01-20T22:20:40.779Z,100806.34
2024-01-20T22:35:43.337Z,100805.00
2024-01-20T22:50:46.141Z,100791.78
2024-01-20T23:05:48.693Z,100796.97
2024-01-20T23:20:51.464Z,100767.53
2024-01-20T23:35:53.968Z,100765.50
2024-01-20T23:50:55.779Z,100764.66
